createdAt,value
2018-03-21T00:02:15.407Z,77.50
2018-03-21T00:04:43.580Z,76.70
2018-03-21T00:07:11.748Z,78.20
2018-03-21T00:09:39.944Z,77.20
2018-03-21T00:12:08.102Z,77.70
2018-03-21T00:14:36.330Z,77.80
2018-03-21T00:17:04.487Z,78.30
2018-03-21T00:19:32.651Z,77.90
2018-03-21T00:22:00.816Z,76.10
2018-03-21T00:24:28.986Z,77.00
2018-03-21T00:26:57.137Z,76.10
2018-03-21T00:29:25.301Z,74.60
2018-03-21T00:31:54.290Z,76.00
2018-03-21T00:34:23.043Z,75.00
2018-03-21T00:36:52.468Z,75.20
2018-03-21T00:39:20.622Z,75.20
2018-03-21T00:41:48.765Z,76.00
2018-03-21T00:44:17.005Z,74.00
2018-03-21T00:46:45.695Z,74.40
2018-03-21T00:49:13.876Z,74.50
2018-03-21T00:51:42.037Z,74.60
2018-03-21T00:54:10.314Z,73.30
2018-03-21T00:56:38.473Z,72.30
2018-03-21T00:59:06.881Z,73.10
2018-03-21T01:01:35.067Z,72.60
2018-03-21T01:04:03.215Z,71.00
2018-03-21T01:06:31.386Z,72.80
2018-03-21T01:08:59.534Z,73.10
2018-03-21T01:11:27.691Z,72.50
2018-03-21T01:13:56.848Z,73.10
2018-03-21T01:16:25.001Z,73.10
2018-03-21T01:18:53.161Z,73.30
2018-03-21T01:21:21.865Z,75.30
2018-03-21T01:23:50.078Z,75.20
2018-03-21T01:26:18.264Z,74.00
2018-03-21T01:28:46.434Z,74.50
2018-03-21T01:31:15.381Z,74.50
2018-03-21T01:33:44.555Z,75.50
2018-03-21T01:36:13.384Z,74.20
2018-03-21T01:38:41.561Z,75.00
2018-03-21T01:41:09.749Z,77.00
2018-03-21T01:43:38.973Z,75.60
2018-03-21T01:46:07.901Z,74.50
2018-03-21T01:48:36.076Z,75.00
2018-03-21T01:51:04.252Z,75.80
2018-03-21T01:53:32.414Z,76.70
2018-03-21T01:56:00.573Z,76.60
2018-03-21T01:58:28.734Z,73.90
2018-03-21T02:00:57.670Z,74.70
2018-03-21T02:03:26.983Z,74.70
2018-03-21T02:05:55.246Z,73.40
2018-03-21T02:08:23.429Z,73.20
2018-03-21T02:10:52.269Z,73.50
2018-03-21T02:13:22.460Z,75.20
2018-03-21T02:15:50.627Z,75.20
2018-03-21T02:18:18.787Z,74.50
2018-03-21T02:20:46.959Z,74.50
2018-03-21T02:23:15.594Z,74.20
2018-03-21T02:25:43.753Z,73.80
2018-03-21T02:28:12.714Z,74.90
2018-03-21T02:30:40.998Z,74.80
2018-03-21T02:33:09.137Z,74.40
2018-03-21T02:35:38.083Z,72.50
2018-03-21T02:38:06.242Z,72.80
2018-03-21T02:40:34.795Z,73.60
2018-03-21T02:43:03.053Z,74.30
2018-03-21T02:45:31.235Z,73.90
2018-03-21T02:47:59.399Z,76.60
2018-03-21T02:50:27.842Z,74.80
2018-03-21T02:52:56.985Z,75.30
2018-03-21T02:55:26.185Z,76.50
2018-03-21T02:57:54.331Z,78.00
2018-03-21T03:00:22.505Z,77.70
2018-03-21T03:02:51.544Z,77.10
2018-03-21T03:05:19.708Z,77.10
2018-03-21T03:07:47.867Z,77.60
2018-03-21T03:10:16.044Z,78.00
2018-03-21T03:12:44.242Z,80.40
2018-03-21T03:15:12.406Z,79.40
2018-03-21T03:17:40.590Z,80.60
2018-03-21T03:20:08.753Z,81.60
2018-03-21T03:22:36.925Z,82.90
2018-03-21T03:25:05.098Z,83.20
2018-03-21T03:27:33.284Z,83.60
2018-03-21T03:30:01.468Z,83.50
2018-03-21T03:32:32.899Z,84.70
2018-03-21T03:35:01.161Z,84.90
2018-03-21T03:37:29.318Z,84.80
2018-03-21T03:39:58.250Z,85.30
2018-03-21T03:42:26.415Z,85.20
2018-03-21T03:44:55.150Z,85.60
2018-03-21T03:47:23.315Z,85.40
2018-03-21T03:49:51.476Z,85.80
2018-03-21T03:52:19.730Z,87.70
2018-03-21T03:54:47.886Z,87.00
2018-03-21T03:57:16.047Z,84.80
2018-03-21T03:59:44.961Z,87.20
2018-03-21T04:02:13.767Z,86.50
2018-03-21T04:04:41.926Z,86.60
2018-03-21T04:07:10.755Z,86.90
2018-03-21T04:09:38.897Z,86.90
2018-03-21T04:12:07.070Z,86.20
2018-03-21T04:14:35.235Z,85.20
2018-03-21T04:17:03.865Z,86.90
2018-03-21T04:19:32.031Z,85.90
2018-03-21T04:22:00.215Z,86.10
2018-03-21T04:24:29.196Z,85.50
2018-03-21T04:26:57.380Z,85.90
2018-03-21T04:29:26.479Z,84.70
2018-03-21T04:31:54.659Z,85.70
2018-03-21T04:34:22.828Z,85.80
2018-03-21T04:36:50.999Z,86.20
2018-03-21T04:39:19.153Z,88.40
2018-03-21T04:41:47.324Z,88.00
2018-03-21T04:44:32.108Z,89.00
2018-03-21T04:47:01.081Z,87.20
2018-03-21T04:49:35.999Z,87.20
2018-03-21T04:52:04.202Z,86.50
2018-03-21T04:54:32.402Z,87.50
2018-03-21T04:57:00.569Z,87.50
2018-03-21T04:59:28.738Z,86.50
2018-03-21T05:01:56.956Z,87.00
2018-03-21T05:04:25.907Z,87.70
2018-03-21T05:06:54.082Z,87.60
2018-03-21T05:09:22.246Z,88.40
2018-03-21T05:11:50.409Z,86.40
2018-03-21T05:14:18.603Z,81.00
2018-03-21T05:16:46.754Z,83.20
2018-03-21T05:19:14.911Z,85.90
2018-03-21T05:21:43.086Z,86.70
2018-03-21T05:24:11.341Z,87.60
2018-03-21T05:26:40.378Z,88.60
2018-03-21T05:29:08.542Z,89.90
2018-03-21T05:31:36.753Z,88.90
2018-03-21T05:34:04.918Z,89.90
2018-03-21T05:36:33.088Z,90.90
2018-03-21T05:39:01.304Z,90.20
2018-03-21T05:41:29.482Z,88.80
2018-03-21T05:43:57.757Z,87.60
2018-03-21T05:46:25.921Z,88.80
2018-03-21T05:48:54.574Z,90.00
2018-03-21T05:51:22.742Z,90.10
2018-03-21T05:53:54.155Z,90.80
2018-03-21T05:56:22.319Z,90.60
2018-03-21T05:58:50.476Z,90.30
2018-03-21T06:01:18.626Z,90.60
2018-03-21T06:03:46.844Z,90.50
2018-03-21T06:06:15.030Z,91.20
2018-03-21T06:08:43.275Z,90.70
2018-03-21T06:11:11.502Z,90.70
2018-03-21T06:13:39.730Z,90.20
2018-03-21T06:16:07.906Z,90.00
2018-03-21T06:18:36.527Z,89.60
2018-03-21T06:21:04.715Z,88.60
2018-03-21T06:23:34.917Z,86.40
2018-03-21T06:26:03.804Z,86.00
2018-03-21T06:28:32.210Z,86.60
2018-03-21T06:31:00.515Z,87.10
2018-03-21T06:33:31.907Z,87.00
2018-03-21T06:36:00.073Z,86.90
2018-03-21T06:38:28.600Z,87.30
2018-03-21T06:40:56.768Z,83.20
2018-03-21T06:43:25.812Z,82.50
2018-03-21T06:45:53.993Z,82.30
2018-03-21T06:48:22.940Z,81.30
2018-03-21T06:50:51.108Z,81.20
2018-03-21T06:53:19.325Z,78.80
2018-03-21T06:55:47.857Z,78.20
2018-03-21T06:58:16.031Z,78.50
2018-03-21T07:00:44.214Z,78.40
2018-03-21T07:03:13.474Z,75.50
2018-03-21T07:05:41.626Z,76.40
2018-03-21T07:08:09.790Z,78.40
2018-03-21T07:10:38.714Z,78.90
2018-03-21T07:13:10.448Z,78.90
2018-03-21T07:15:50.577Z,78.10
2018-03-21T07:18:18.753Z,78.30
2018-03-21T07:20:47.688Z,76.10
2018-03-21T07:23:29.133Z,76.10
2018-03-21T07:25:57.432Z,78.10
2018-03-21T07:28:25.601Z,77.40
2018-03-21T07:30:53.769Z,78.00
2018-03-21T07:33:22.074Z,76.60
2018-03-21T07:35:50.264Z,71.40
2018-03-21T07:38:18.442Z,70.50
2018-03-21T07:40:46.614Z,70.20
2018-03-21T07:43:15.798Z,65.20
2018-03-21T07:45:43.950Z,67.40
2018-03-21T07:48:12.120Z,67.10
2018-03-21T07:50:40.299Z,67.70
2018-03-21T07:53:08.494Z,65.50
2018-03-21T07:55:36.664Z,65.60
2018-03-21T07:58:04.819Z,61.70
2018-03-21T08:00:33.032Z,58.90
2018-03-21T08:03:03.945Z,57.00
2018-03-21T08:05:32.157Z,58.30
2018-03-21T08:08:00.312Z,56.50
2018-03-21T08:10:28.488Z,56.50
2018-03-21T08:12:56.741Z,56.30
2018-03-21T08:15:25.168Z,56.20
2018-03-21T08:17:53.321Z,57.40
2018-03-21T08:20:21.490Z,55.10
2018-03-21T08:22:49.668Z,56.20
2018-03-21T08:25:17.833Z,56.30
2018-03-21T08:27:46.467Z,54.40
2018-03-21T08:30:16.690Z,54.30
2018-03-21T08:32:45.568Z,52.50
2018-03-21T08:35:14.037Z,49.60
2018-03-21T08:37:43.015Z,49.60
2018-03-21T08:40:11.927Z,45.80
2018-03-21T08:42:40.200Z,40.10
2018-03-21T08:45:09.378Z,43.30
2018-03-21T08:47:37.532Z,40.00
2018-03-21T08:50:05.674Z,37.80
2018-03-21T08:52:33.901Z,39.10
2018-03-21T08:55:02.041Z,36.70
2018-03-21T08:57:30.192Z,34.80
2018-03-21T09:00:01.027Z,33.00
2018-03-21T09:02:40.583Z,29.70
2018-03-21T09:05:11.606Z,31.60
2018-03-21T09:07:40.546Z,30.10
2018-03-21T09:10:09.542Z,30.00
2018-03-21T09:12:37.975Z,32.70
2018-03-21T09:15:10.673Z,30.00
2018-03-21T09:17:41.926Z,29.90
2018-03-21T09:20:12.638Z,27.20
2018-03-21T09:22:41.766Z,27.20
2018-03-21T09:25:11.471Z,26.70
2018-03-21T09:27:40.460Z,27.30
2018-03-21T09:30:10.138Z,27.30
2018-03-21T09:32:40.303Z,26.20
2018-03-21T09:35:10.906Z,26.40
2018-03-21T09:37:39.828Z,28.00
2018-03-21T09:40:10.439Z,27.70
2018-03-21T09:42:38.941Z,28.20
2018-03-21T09:45:08.425Z,27.40
2018-03-21T09:47:41.833Z,27.00
2018-03-21T09:50:11.401Z,26.20
2018-03-21T09:52:41.509Z,26.20
2018-03-21T09:55:10.417Z,25.00
2018-03-21T09:57:38.725Z,25.50
2018-03-21T10:00:07.684Z,26.30
2018-03-21T10:02:35.845Z,26.30
2018-03-21T10:05:04.006Z,27.10
2018-03-21T10:07:32.145Z,25.60
2018-03-21T10:10:01.277Z,25.60
2018-03-21T10:12:29.522Z,25.60
2018-03-21T10:14:58.311Z,27.30
2018-03-21T10:17:26.543Z,27.10
2018-03-21T10:19:55.023Z,25.50
2018-03-21T10:22:24.109Z,27.30
2018-03-21T10:24:52.258Z,27.20
2018-03-21T10:27:20.422Z,26.70
2018-03-21T10:29:48.622Z,26.80
2018-03-21T10:32:17.636Z,26.70
2018-03-21T10:34:45.794Z,29.30
2018-03-21T10:37:13.944Z,29.70
2018-03-21T10:39:42.777Z,28.50
2018-03-21T10:42:11.718Z,27.30
2018-03-21T10:44:39.908Z,27.30
2018-03-21T10:47:08.090Z,27.20
2018-03-21T10:49:36.638Z,27.80
2018-03-21T10:52:04.858Z,27.40
2018-03-21T10:54:35.640Z,26.50
2018-03-21T10:57:05.350Z,26.10
2018-03-21T10:59:34.353Z,24.90
2018-03-21T11:02:09.987Z,24.20
2018-03-21T11:04:40.813Z,24.20
2018-03-21T11:07:10.064Z,25.80
2018-03-21T11:09:38.261Z,26.10
2018-03-21T11:12:06.439Z,23.30
2018-03-21T11:14:34.592Z,24.00
2018-03-21T11:17:02.781Z,22.40
2018-03-21T11:19:33.001Z,23.30
2018-03-21T11:22:04.251Z,23.10
2018-03-21T11:24:33.224Z,23.20
2018-03-21T11:27:06.691Z,23.60
2018-03-21T11:29:34.838Z,22.80
2018-03-21T11:32:03.632Z,24.00
2018-03-21T11:34:32.103Z,24.70
2018-03-21T11:41:40.700Z,22.20
2018-03-21T11:47:08.859Z,20.60
2018-03-21T11:49:40.766Z,20.20
2018-03-21T11:52:09.963Z,20.60
2018-03-21T11:54:41.691Z,20.50
2018-03-21T11:57:15.024Z,18.60
2018-03-21T11:59:44.877Z,20.10
2018-03-21T12:02:16.813Z,19.10
2018-03-21T12:04:45.007Z,19.00
2018-03-21T12:07:15.831Z,19.70
2018-03-21T12:09:46.698Z,20.30
2018-03-21T12:12:17.019Z,19.40
2018-03-21T12:14:45.178Z,17.40
2018-03-21T12:17:19.772Z,16.70
2018-03-21T12:19:47.916Z,16.00
2018-03-21T12:22:20.167Z,16.60
2018-03-21T12:24:49.752Z,17.40
2018-03-21T12:27:22.639Z,16.70
2018-03-21T12:29:52.081Z,15.60
2018-03-21T12:32:22.886Z,14.70
2018-03-21T12:34:53.496Z,14.90
2018-03-21T12:37:23.956Z,16.50
2018-03-21T12:39:52.099Z,16.70
2018-03-21T12:42:21.825Z,16.40
2018-03-21T12:44:51.310Z,17.50
2018-03-21T12:47:23.423Z,17.40
2018-03-21T12:49:51.716Z,18.00
2018-03-21T12:52:24.142Z,19.20
2018-03-21T12:54:52.427Z,18.10
2018-03-21T12:57:21.202Z,16.10
2018-03-21T12:59:49.350Z,14.10
2018-03-21T13:02:19.074Z,15.60
2018-03-21T13:04:47.236Z,16.50
2018-03-21T13:07:15.517Z,16.20
2018-03-21T13:09:43.675Z,15.40
2018-03-21T13:12:16.380Z,16.30
2018-03-21T13:14:45.222Z,17.50
2018-03-21T13:17:16.653Z,17.90
2018-03-21T13:19:45.749Z,16.30
2018-03-21T13:22:15.367Z,16.50
2018-03-21T13:24:43.591Z,16.50
2018-03-21T13:27:11.779Z,15.00
2018-03-21T13:29:40.338Z,13.50
2018-03-21T13:32:09.327Z,15.50
2018-03-21T13:34:37.560Z,13.30
2018-03-21T13:37:05.748Z,13.60
2018-03-21T13:39:33.909Z,14.00
2018-03-21T13:42:02.564Z,15.10
2018-03-21T13:44:31.681Z,13.70
2018-03-21T13:47:00.299Z,13.80
2018-03-21T13:49:29.582Z,13.60
2018-03-21T13:52:00.306Z,14.40
2018-03-21T13:54:29.054Z,14.90
2018-03-21T13:56:57.478Z,14.00
2018-03-21T13:59:27.715Z,12.90
2018-03-21T14:01:59.408Z,12.40
2018-03-21T14:04:27.995Z,11.90
2018-03-21T14:06:57.125Z,12.90
2018-03-21T14:09:25.974Z,11.20
2018-03-21T14:11:54.160Z,10.90
2018-03-21T14:14:22.309Z,10.80
2018-03-21T14:16:50.474Z,11.50
2018-03-21T14:19:18.680Z,7.80
2018-03-21T14:21:46.839Z,8.00
2018-03-21T14:24:15.017Z,6.10
2018-03-21T14:26:43.419Z,5.10
2018-03-21T14:29:11.581Z,4.60
2018-03-21T14:31:40.568Z,3.90
2018-03-21T14:34:10.829Z,2.70
2018-03-21T14:36:39.003Z,3.30
2018-03-21T14:39:07.182Z,3.20
2018-03-21T14:41:36.145Z,2.60
2018-03-21T14:44:04.382Z,2.50
2018-03-21T14:46:32.554Z,3.50
2018-03-21T14:49:00.725Z,3.10
2018-03-21T14:51:29.800Z,2.40
2018-03-21T14:54:01.791Z,2.80
2018-03-21T14:56:29.984Z,1.80
2018-03-21T14:58:58.206Z,1.80
2018-03-21T15:01:27.142Z,1.40
2018-03-21T15:03:57.356Z,1.40
2018-03-21T15:06:25.549Z,2.20
2018-03-21T15:08:54.447Z,1.00
2018-03-21T15:11:23.040Z,1.10
2018-03-21T15:13:53.448Z,1.20
2018-03-21T15:16:21.954Z,2.00
2018-03-21T15:18:50.129Z,2.40
2018-03-21T15:21:18.282Z,1.50
2018-03-21T15:23:47.446Z,1.00
2018-03-21T15:26:15.632Z,2.50
2018-03-21T15:28:44.846Z,2.70
2018-03-21T15:31:14.006Z,2.70
2018-03-21T15:33:44.698Z,3.10
2018-03-21T15:36:16.502Z,3.20
2018-03-21T15:38:48.859Z,3.30
2018-03-21T15:41:17.042Z,2.90
2018-03-21T15:43:45.351Z,2.00
2018-03-21T15:46:13.574Z,1.00
2018-03-21T15:48:43.136Z,1.70
2018-03-21T15:51:11.980Z,1.70
2018-03-21T15:53:41.217Z,2.00
2018-03-21T15:56:09.411Z,3.50
2018-03-21T15:58:37.877Z,4.20
2018-03-21T16:03:41.362Z,7.30
2018-03-21T16:06:11.068Z,7.30
2018-03-21T16:08:39.703Z,7.00
2018-03-21T16:11:08.895Z,8.70
2018-03-21T16:13:38.043Z,8.30
2018-03-21T16:16:06.302Z,9.00
2018-03-21T16:18:34.508Z,10.50
2018-03-21T16:21:02.878Z,9.30
2018-03-21T16:23:31.117Z,9.80
2018-03-21T16:25:59.378Z,9.20
2018-03-21T16:28:27.553Z,9.20
2018-03-21T16:30:55.710Z,8.90
2018-03-21T16:33:23.958Z,9.80
2018-03-21T16:35:52.111Z,10.00
2018-03-21T16:38:21.019Z,9.90
2018-03-21T16:40:49.469Z,9.90
2018-03-21T16:43:18.835Z,8.40
2018-03-21T16:45:47.002Z,10.30
2018-03-21T16:48:15.885Z,11.30
2018-03-21T16:50:44.043Z,10.30
2018-03-21T16:53:12.210Z,11.80
2018-03-21T16:55:41.519Z,11.00
2018-03-21T16:58:10.721Z,10.40
2018-03-21T17:00:38.926Z,10.20
2018-03-21T17:03:08.187Z,10.90
2018-03-21T17:05:36.367Z,11.50
2018-03-21T17:08:04.566Z,11.90
2018-03-21T17:10:33.935Z,11.70
2018-03-21T17:13:07.656Z,10.00
2018-03-21T17:15:39.130Z,11.70
2018-03-21T17:18:09.714Z,11.30
2018-03-21T17:20:37.865Z,11.10
2018-03-21T17:23:06.141Z,11.50
2018-03-21T17:25:34.405Z,11.80
2018-03-21T17:28:03.872Z,12.10
2018-03-21T17:30:32.065Z,12.00
2018-03-21T17:33:00.229Z,11.20
2018-03-21T17:35:28.409Z,11.90
2018-03-21T17:37:57.264Z,11.90
2018-03-21T17:40:25.588Z,11.80
2018-03-21T17:42:53.771Z,13.10
2018-03-21T17:45:22.354Z,12.80
2018-03-21T17:47:50.542Z,15.20
2018-03-21T17:50:19.262Z,17.70
2018-03-21T17:52:47.453Z,18.50
2018-03-21T17:55:15.626Z,19.80
2018-03-21T17:57:44.805Z,22.30
2018-03-21T18:00:12.956Z,22.70
2018-03-21T18:02:42.180Z,23.20
2018-03-21T18:05:10.388Z,23.30
2018-03-21T18:07:38.545Z,23.80
2018-03-21T18:10:09.801Z,25.60
2018-03-21T18:12:38.767Z,29.40
2018-03-21T18:15:06.918Z,29.40
2018-03-21T18:17:36.345Z,30.10
2018-03-21T18:20:04.500Z,31.70
2018-03-21T18:22:33.539Z,30.40
2018-03-21T18:25:01.730Z,30.40
2018-03-21T18:27:29.880Z,32.90
2018-03-21T18:29:58.050Z,33.60
2018-03-21T18:32:36.745Z,33.50
2018-03-21T18:35:05.774Z,34.40
2018-03-21T18:37:34.910Z,34.30
2018-03-21T18:40:03.087Z,31.40
2018-03-21T18:42:37.118Z,30.20
2018-03-21T18:45:05.291Z,31.80
2018-03-21T18:47:35.012Z,33.90
2018-03-21T18:50:04.053Z,34.00
2018-03-21T18:52:32.308Z,35.10
2018-03-21T18:55:01.410Z,34.30
2018-03-21T18:57:30.023Z,36.10
2018-03-21T18:59:58.181Z,34.50
2018-03-21T19:02:32.542Z,35.50
2018-03-21T19:05:00.710Z,35.60
2018-03-21T19:07:34.706Z,37.20
2018-03-21T19:10:02.886Z,35.90
2018-03-21T19:12:37.476Z,34.80
2018-03-21T19:15:07.385Z,35.50
2018-03-21T19:17:38.640Z,33.80
2018-03-21T19:20:09.389Z,35.50
2018-03-21T19:22:38.392Z,35.60
2018-03-21T19:25:06.698Z,34.30
2018-03-21T19:27:34.891Z,34.50
2018-03-21T19:30:05.462Z,33.90
2018-03-21T19:32:36.104Z,34.30
2018-03-21T19:35:05.915Z,34.90
2018-03-21T19:37:34.483Z,35.80
2018-03-21T19:40:04.669Z,31.40
2018-03-21T19:42:33.172Z,31.50
2018-03-21T19:45:01.330Z,32.80
2018-03-21T19:47:30.951Z,34.20
2018-03-21T19:49:59.101Z,36.20
2018-03-21T19:52:27.406Z,39.10
2018-03-21T19:54:55.573Z,38.00
2018-03-21T19:57:23.741Z,39.90
2018-03-21T19:59:51.918Z,42.20
2018-03-21T20:02:21.328Z,41.60
2018-03-21T20:04:49.881Z,41.10
2018-03-21T20:07:18.858Z,40.50
2018-03-21T20:09:47.035Z,40.40
2018-03-21T20:12:15.251Z,37.80
2018-03-21T20:14:43.427Z,39.90
2018-03-21T20:17:11.591Z,40.80
2018-03-21T20:19:40.493Z,39.70
2018-03-21T20:22:09.884Z,39.80
2018-03-21T20:24:38.065Z,39.80
2018-03-21T20:27:06.454Z,41.20
2018-03-21T20:29:34.766Z,42.00
2018-03-21T20:32:03.101Z,41.40
2018-03-21T20:34:31.282Z,43.00
2018-03-21T20:36:59.443Z,42.00
2018-03-21T20:39:27.614Z,37.50
2018-03-21T20:41:56.424Z,39.70
2018-03-21T20:44:24.589Z,39.40
2018-03-21T20:46:52.749Z,39.70
2018-03-21T20:49:20.905Z,37.60
2018-03-21T20:51:49.574Z,37.40
2018-03-21T20:54:19.814Z,40.10
2018-03-21T20:56:48.049Z,40.10
2018-03-21T20:59:17.266Z,40.60
2018-03-21T21:01:45.422Z,40.70
2018-03-21T21:04:13.840Z,40.00
2018-03-21T21:06:42.762Z,41.50
2018-03-21T21:09:13.211Z,43.30
2018-03-21T21:11:41.456Z,43.40
2018-03-21T21:14:10.636Z,41.80
2018-03-21T21:16:38.896Z,41.60
2018-03-21T21:19:07.266Z,39.20
2018-03-21T21:21:35.485Z,39.50
2018-03-21T21:24:04.686Z,41.70
2018-03-21T21:26:32.856Z,44.00
2018-03-21T21:29:01.808Z,43.10
2018-03-21T21:31:29.995Z,43.20
2018-03-21T21:33:58.674Z,43.40
2018-03-21T21:36:28.618Z,43.80
2018-03-21T21:38:56.774Z,43.80
2018-03-21T21:41:24.984Z,40.70
2018-03-21T21:43:56.431Z,39.90
2018-03-21T21:46:24.681Z,41.30
2018-03-21T21:48:52.843Z,40.20
2018-03-21T21:51:25.442Z,39.90
2018-03-21T21:54:01.064Z,39.40
2018-03-21T21:56:29.276Z,40.90
2018-03-21T21:58:57.537Z,41.90
2018-03-21T22:01:26.489Z,44.20
2018-03-21T22:03:54.720Z,43.70
2018-03-21T22:06:22.901Z,43.60
2018-03-21T22:08:52.992Z,44.10
2018-03-21T22:11:21.163Z,41.60
2018-03-21T22:13:50.289Z,40.40
2018-03-21T22:16:18.457Z,42.20
2018-03-21T22:18:47.434Z,44.10
2018-03-21T22:21:16.083Z,44.50
2018-03-21T22:23:47.387Z,44.90
2018-03-21T22:26:15.617Z,43.40
2018-03-21T22:28:43.837Z,42.10
2018-03-21T22:31:12.019Z,42.90
2018-03-21T22:33:42.406Z,42.90
2018-03-21T22:36:11.331Z,42.70
2018-03-21T22:38:40.528Z,43.40
2018-03-21T22:41:09.766Z,43.40
2018-03-21T22:43:42.094Z,43.40
2018-03-21T22:46:10.499Z,42.70
2018-03-21T22:48:38.646Z,43.00
2018-03-21T22:51:06.807Z,44.10
2018-03-21T22:53:35.131Z,43.10
2018-03-21T22:56:04.096Z,45.00
2018-03-21T22:58:33.021Z,45.00
2018-03-21T23:01:02.202Z,44.50
2018-03-21T23:03:30.746Z,43.30
2018-03-21T23:05:58.929Z,44.90
2018-03-21T23:08:27.101Z,46.00
2018-03-21T23:10:56.115Z,44.40
2018-03-21T23:13:25.721Z,45.00
2018-03-21T23:15:53.885Z,44.80
2018-03-21T23:18:22.137Z,47.50
2018-03-21T23:20:51.958Z,46.00
2018-03-21T23:23:20.486Z,44.70
2018-03-21T23:25:48.822Z,46.50
2018-03-21T23:28:17.011Z,47.10
2018-03-21T23:30:45.834Z,47.40
2018-03-21T23:33:15.079Z,47.50
2018-03-21T23:35:44.546Z,48.10
2018-03-21T23:38:12.874Z,49.20
2018-03-21T23:40:41.035Z,46.90
2018-03-21T23:43:10.016Z,46.60
2018-03-21T23:45:39.554Z,47.10
2018-03-21T23:48:08.514Z,45.00
2018-03-21T23:50:36.753Z,45.00
2018-03-21T23:53:07.819Z,45.60
2018-03-21T23:55:35.974Z,46.00
2018-03-21T23:58:04.141Z,44.80
